createdAt,value
2023-09-09T00:01:23.513Z,44.62
2023-09-09T00:03:57.301Z,44.28
2023-09-09T00:06:30.255Z,44.46
2023-09-09T00:09:05.639Z,44.23
2023-09-09T00:11:40.621Z,44.70
2023-09-09T00:14:13.428Z,44.73
2023-09-09T00:16:46.269Z,44.79
2023-09-09T00:19:23.000Z,44.50
2023-09-09T00:21:56.372Z,44.74
2023-09-09T00:24:29.275Z,44.51
2023-09-09T00:27:03.529Z,44.63
2023-09-09T00:29:36.506Z,44.75
2023-09-09T00:32:09.640Z,45.18
2023-09-09T00:34:42.600Z,44.81
2023-09-09T00:37:15.140Z,45.05
2023-09-09T00:39:47.955Z,44.90
2023-09-09T00:42:22.356Z,44.70
2023-09-09T00:44:55.217Z,44.49
2023-09-09T00:47:28.720Z,44.94
2023-09-09T00:50:01.948Z,44.80
2023-09-09T00:52:35.384Z,44.64
2023-09-09T00:55:09.852Z,45.11
2023-09-09T00:57:43.982Z,44.76
2023-09-09T01:00:18.248Z,45.40
2023-09-09T01:02:51.461Z,45.53
2023-09-09T01:05:24.743Z,45.29
2023-09-09T01:08:25.782Z,45.48
2023-09-09T01:10:59.423Z,45.36
2023-09-09T01:13:36.164Z,45.67
2023-09-09T01:16:09.931Z,45.18
2023-09-09T01:18:42.818Z,45.79
2023-09-09T01:21:17.863Z,45.41
2023-09-09T01:23:52.160Z,45.20
2023-09-09T01:26:25.013Z,45.35
2023-09-09T01:28:58.605Z,45.05
2023-09-09T01:31:31.327Z,45.28
2023-09-09T01:34:04.244Z,45.25
2023-09-09T01:36:37.165Z,45.41
2023-09-09T01:39:11.493Z,45.17
2023-09-09T01:41:44.409Z,45.25
2023-09-09T01:44:19.958Z,45.42
2023-09-09T01:46:52.769Z,45.31
2023-09-09T01:49:25.629Z,45.70
2023-09-09T01:51:58.946Z,45.59
2023-09-09T01:54:33.479Z,45.45
2023-09-09T01:57:07.024Z,45.24
2023-09-09T01:59:40.796Z,45.57
2023-09-09T02:02:17.120Z,45.36
2023-09-09T02:04:50.829Z,45.19
2023-09-09T02:07:23.778Z,45.75
2023-09-09T02:09:58.633Z,45.55
2023-09-09T02:12:32.593Z,45.37
2023-09-09T02:15:06.833Z,45.13
2023-09-09T02:17:39.635Z,45.47
2023-09-09T02:20:12.502Z,45.40
2023-09-09T02:22:45.293Z,45.33
2023-09-09T02:25:20.387Z,45.42
2023-09-09T02:27:53.344Z,45.39
2023-09-09T02:30:25.974Z,45.57
2023-09-09T02:32:59.180Z,45.36
2023-09-09T02:35:34.786Z,45.33
2023-09-09T02:38:07.641Z,45.37
2023-09-09T02:40:41.798Z,45.87
2023-09-09T02:43:14.576Z,45.47
2023-09-09T02:45:47.716Z,45.35
2023-09-09T02:48:20.586Z,45.32
2023-09-09T02:50:53.214Z,45.62
2023-09-09T02:53:26.188Z,45.84
2023-09-09T02:56:00.498Z,45.97
2023-09-09T02:58:36.267Z,45.45
2023-09-09T03:01:09.378Z,45.44
2023-09-09T03:03:43.106Z,45.45
2023-09-09T03:06:16.259Z,45.86
2023-09-09T03:08:49.111Z,46.07
2023-09-09T03:11:23.183Z,45.84
2023-09-09T03:13:56.062Z,45.96
2023-09-09T03:16:29.068Z,45.92
2023-09-09T03:19:10.997Z,45.70
2023-09-09T03:21:43.971Z,45.84
2023-09-09T03:24:16.861Z,46.21
2023-09-09T03:26:51.453Z,46.10
2023-09-09T03:29:25.223Z,46.36
2023-09-09T03:31:58.892Z,46.23
2023-09-09T03:34:31.563Z,45.97
2023-09-09T03:37:04.537Z,46.48
2023-09-09T03:39:37.943Z,46.10
2023-09-09T03:42:12.419Z,46.63
2023-09-09T03:44:45.681Z,46.62
2023-09-09T03:47:19.401Z,46.57
2023-09-09T03:49:54.536Z,46.83
2023-09-09T03:52:27.374Z,46.97
2023-09-09T03:55:00.103Z,46.97
2023-09-09T03:57:34.490Z,46.58
2023-09-09T04:00:13.114Z,46.75
2023-09-09T04:02:48.022Z,46.64
2023-09-09T04:05:21.377Z,46.68
2023-09-09T04:07:54.106Z,46.65
2023-09-09T04:10:27.426Z,46.85
2023-09-09T04:13:01.549Z,46.88
2023-09-09T04:15:34.352Z,46.70
2023-09-09T04:18:07.140Z,46.99
2023-09-09T04:20:40.345Z,46.64
2023-09-09T04:23:13.150Z,47.01
2023-09-09T04:25:46.386Z,47.17
2023-09-09T04:28:20.970Z,47.15
2023-09-09T04:30:54.359Z,46.86
2023-09-09T04:33:27.434Z,46.67
2023-09-09T04:36:00.546Z,46.55
2023-09-09T04:38:33.770Z,46.89
2023-09-09T04:41:06.680Z,47.19
2023-09-09T04:43:41.394Z,46.81
2023-09-09T04:46:14.697Z,46.93
2023-09-09T04:48:53.535Z,47.21
2023-09-09T04:51:26.447Z,47.25
2023-09-09T04:53:59.356Z,48.50
2023-09-09T04:56:32.792Z,48.73
2023-09-09T04:59:07.226Z,48.58
2023-09-09T05:01:40.225Z,48.22
2023-09-09T05:04:13.364Z,48.30
2023-09-09T05:06:46.405Z,48.16
2023-09-09T05:09:19.382Z,48.17
2023-09-09T05:11:52.480Z,48.21
2023-09-09T05:14:26.592Z,47.98
2023-09-09T05:16:59.608Z,48.14
2023-09-09T05:19:32.849Z,48.28
2023-09-09T05:22:05.906Z,48.29
2023-09-09T05:24:39.411Z,48.18
2023-09-09T05:27:12.233Z,48.20
2023-09-09T05:29:46.465Z,48.25
2023-09-09T05:32:19.841Z,48.07
2023-09-09T05:34:53.136Z,48.35
2023-09-09T05:37:27.607Z,48.13
2023-09-09T05:40:04.033Z,48.13
2023-09-09T05:42:38.445Z,48.40
2023-09-09T05:45:13.340Z,48.26
2023-09-09T05:47:47.556Z,47.91
2023-09-09T05:50:20.544Z,47.94
2023-09-09T05:52:55.504Z,48.18
2023-09-09T05:55:31.483Z,47.99
2023-09-09T05:58:05.278Z,48.04
2023-09-09T06:00:39.560Z,48.16
2023-09-09T06:03:12.407Z,47.89
2023-09-09T06:05:45.586Z,48.19
2023-09-09T06:08:19.095Z,48.19
2023-09-09T06:10:51.925Z,48.22
2023-09-09T06:13:25.006Z,47.81
2023-09-09T06:15:59.465Z,47.87
2023-09-09T06:18:33.821Z,48.05
2023-09-09T06:21:06.630Z,47.96
2023-09-09T06:23:39.548Z,47.81
2023-09-09T06:26:12.717Z,47.95
2023-09-09T06:28:45.970Z,47.80
2023-09-09T06:31:20.640Z,47.60
2023-09-09T06:33:53.563Z,47.51
2023-09-09T06:36:26.466Z,47.19
2023-09-09T06:38:59.980Z,47.08
2023-09-09T06:41:33.091Z,47.25
2023-09-09T06:44:06.838Z,47.30
2023-09-09T06:46:41.916Z,47.53
2023-09-09T06:49:14.881Z,46.88
2023-09-09T06:51:49.042Z,47.12
2023-09-09T06:54:21.858Z,47.06
2023-09-09T06:56:54.604Z,46.68
2023-09-09T06:59:27.812Z,46.63
2023-09-09T07:02:03.228Z,46.76
2023-09-09T07:04:37.101Z,46.62
2023-09-09T07:07:13.421Z,46.40
2023-09-09T07:09:48.016Z,46.50
2023-09-09T07:12:21.058Z,46.59
2023-09-09T07:14:53.945Z,46.25
2023-09-09T07:17:27.935Z,46.31
2023-09-09T07:20:00.818Z,46.03
2023-09-09T07:22:33.475Z,45.99
2023-09-09T07:25:08.385Z,46.04
2023-09-09T07:27:41.696Z,46.17
2023-09-09T07:30:14.714Z,46.34
2023-09-09T07:32:49.596Z,45.50
2023-09-09T07:35:22.756Z,45.50
2023-09-09T07:37:55.678Z,45.38
2023-09-09T07:40:28.574Z,45.15
2023-09-09T07:43:01.900Z,45.03
2023-09-09T07:45:34.658Z,45.20
2023-09-09T07:48:09.119Z,45.55
2023-09-09T07:50:42.083Z,46.22
2023-09-09T07:53:17.609Z,46.41
2023-09-09T07:55:50.780Z,46.23
2023-09-09T07:58:23.909Z,46.62
2023-09-09T08:01:00.472Z,46.72
2023-09-09T08:03:40.639Z,46.54
2023-09-09T08:06:15.319Z,46.67
2023-09-09T08:08:51.498Z,46.83
2023-09-09T08:11:24.342Z,46.61
2023-09-09T08:13:57.091Z,46.96
2023-09-09T08:16:33.719Z,46.88
2023-09-09T08:19:08.772Z,46.56
2023-09-09T08:21:41.600Z,46.96
2023-09-09T08:24:14.354Z,46.21
2023-09-09T08:26:48.202Z,45.60
2023-09-09T08:29:21.081Z,46.76
2023-09-09T08:31:54.292Z,46.68
2023-09-09T08:34:28.452Z,46.67
2023-09-09T08:37:01.783Z,46.69
2023-09-09T08:39:37.080Z,46.60
2023-09-09T08:42:18.609Z,44.97
2023-09-09T08:45:03.484Z,45.04
2023-09-09T08:47:38.448Z,44.81
2023-09-09T08:50:17.994Z,45.07
2023-09-09T08:52:54.127Z,44.28
2023-09-09T08:55:27.576Z,44.23
2023-09-09T08:58:01.043Z,44.42
2023-09-09T09:00:36.051Z,43.64
2023-09-09T09:03:11.262Z,42.80
2023-09-09T09:05:46.890Z,43.05
2023-09-09T09:08:19.920Z,44.23
2023-09-09T09:10:52.705Z,43.73
2023-09-09T09:13:25.956Z,43.89
2023-09-09T09:15:59.121Z,43.86
2023-09-09T09:18:32.608Z,41.43
2023-09-09T09:21:11.401Z,42.12
2023-09-09T09:23:45.534Z,41.37
2023-09-09T09:26:25.937Z,41.91
2023-09-09T09:28:59.100Z,41.59
2023-09-09T09:31:31.958Z,41.40
2023-09-09T09:34:04.941Z,39.97
2023-09-09T09:36:39.125Z,40.18
2023-09-09T09:39:12.027Z,40.74
2023-09-09T09:41:45.345Z,39.57
2023-09-09T09:44:20.676Z,40.35
2023-09-09T09:47:07.437Z,38.95
2023-09-09T09:49:42.027Z,40.43
2023-09-09T09:52:25.416Z,39.68
2023-09-09T09:54:58.388Z,39.78
2023-09-09T09:57:31.976Z,38.48
2023-09-09T10:00:09.009Z,40.16
2023-09-09T10:02:48.032Z,39.22
2023-09-09T10:05:23.532Z,39.07
2023-09-09T10:08:05.915Z,37.12
2023-09-09T10:10:44.211Z,37.88
2023-09-09T10:13:25.202Z,38.73
2023-09-09T10:15:59.744Z,38.58
2023-09-09T10:18:34.445Z,38.05
2023-09-09T10:21:10.695Z,38.82
2023-09-09T10:23:47.887Z,38.82
2023-09-09T10:26:22.028Z,38.87
2023-09-09T10:28:55.966Z,37.80
2023-09-09T10:31:30.145Z,37.29
2023-09-09T10:34:03.852Z,37.89
2023-09-09T10:36:50.822Z,38.12
2023-09-09T10:39:41.479Z,37.83
2023-09-09T10:42:14.570Z,36.35
2023-09-09T10:44:50.248Z,37.50
2023-09-09T10:47:23.616Z,37.30
2023-09-09T10:50:06.590Z,36.82
2023-09-09T10:52:39.713Z,35.50
2023-09-09T10:55:14.624Z,36.75
2023-09-09T10:57:58.651Z,37.79
2023-09-09T11:00:39.150Z,38.04
2023-09-09T11:03:13.264Z,37.39
2023-09-09T11:06:03.793Z,36.20
2023-09-09T11:08:45.457Z,36.80
2023-09-09T11:11:25.827Z,35.53
2023-09-09T11:14:04.532Z,36.96
2023-09-09T11:16:39.162Z,36.25
2023-09-09T11:19:13.498Z,36.05
2023-09-09T11:21:47.679Z,36.68
2023-09-09T11:24:21.523Z,35.94
2023-09-09T11:26:57.608Z,36.25
2023-09-09T11:29:37.375Z,35.05
2023-09-09T11:32:25.358Z,36.05
2023-09-09T11:34:59.385Z,35.47
2023-09-09T11:37:32.676Z,35.89
2023-09-09T11:40:06.633Z,35.71
2023-09-09T11:42:53.420Z,36.26
2023-09-09T11:45:26.272Z,36.15
2023-09-09T11:47:59.406Z,36.21
2023-09-09T11:50:40.648Z,36.24
2023-09-09T11:53:14.267Z,35.02
2023-09-09T11:55:47.437Z,35.70
2023-09-09T11:58:21.597Z,35.11
2023-09-09T12:01:01.795Z,32.66
2023-09-09T12:03:35.209Z,32.88
2023-09-09T12:06:10.266Z,32.02
2023-09-09T12:08:43.934Z,32.26
2023-09-09T12:11:18.836Z,30.35
2023-09-09T12:13:53.301Z,30.03
2023-09-09T12:16:26.217Z,33.03
2023-09-09T12:18:59.350Z,30.91
2023-09-09T12:21:33.142Z,30.46
2023-09-09T12:24:07.172Z,30.33
2023-09-09T12:26:40.638Z,29.09
2023-09-09T12:29:14.941Z,30.02
2023-09-09T12:31:53.971Z,30.75
2023-09-09T12:34:28.729Z,30.21
2023-09-09T12:37:02.038Z,28.74
2023-09-09T12:39:34.857Z,27.47
2023-09-09T12:42:08.978Z,29.79
2023-09-09T12:44:54.200Z,29.74
2023-09-09T12:47:27.658Z,29.51
2023-09-09T12:50:00.568Z,29.29
2023-09-09T12:52:33.785Z,28.69
2023-09-09T12:55:06.740Z,27.64
2023-09-09T12:57:39.473Z,30.47
2023-09-09T13:00:14.970Z,30.63
2023-09-09T13:02:48.050Z,28.28
2023-09-09T13:05:21.510Z,28.08
2023-09-09T13:07:54.651Z,27.92
2023-09-09T13:10:27.568Z,29.41
2023-09-09T13:13:00.298Z,27.61
2023-09-09T13:15:34.774Z,28.93
2023-09-09T13:18:06.710Z,28.43
2023-09-09T13:20:39.490Z,28.70
2023-09-09T13:23:12.254Z,28.76
2023-09-09T13:25:45.144Z,28.60
2023-09-09T13:28:18.198Z,28.18
2023-09-09T13:30:52.215Z,28.31
2023-09-09T13:33:25.094Z,27.41
2023-09-09T13:35:57.822Z,27.98
2023-09-09T13:38:30.616Z,28.80
2023-09-09T13:41:04.424Z,30.02
2023-09-09T13:43:37.679Z,28.67
2023-09-09T13:46:12.384Z,27.94
2023-09-09T13:48:45.142Z,27.92
2023-09-09T13:51:17.887Z,28.95
2023-09-09T13:53:51.012Z,28.58
2023-09-09T13:56:23.926Z,28.37
2023-09-09T13:58:57.911Z,27.98
2023-09-09T14:01:32.378Z,28.03
2023-09-09T14:04:05.794Z,28.18
2023-09-09T14:06:38.620Z,28.36
2023-09-09T14:09:11.568Z,28.42
2023-09-09T14:11:44.446Z,29.70
2023-09-09T14:14:18.461Z,30.20
2023-09-09T14:16:56.251Z,28.78
2023-09-09T14:19:29.723Z,28.67
2023-09-09T14:22:02.779Z,29.47
2023-09-09T14:24:35.899Z,29.81
2023-09-09T14:27:10.004Z,29.80
2023-09-09T14:29:46.508Z,30.00
2023-09-09T14:32:20.654Z,30.36
2023-09-09T14:34:53.414Z,29.05
2023-09-09T14:37:26.439Z,30.50
2023-09-09T14:39:59.240Z,28.79
2023-09-09T14:42:32.076Z,30.68
2023-09-09T14:45:05.855Z,28.79
2023-09-09T14:47:39.995Z,30.07
2023-09-09T14:50:13.106Z,29.13
2023-09-09T14:52:45.958Z,27.79
2023-09-09T14:55:20.208Z,29.52
2023-09-09T14:57:52.945Z,27.85
2023-09-09T15:00:25.627Z,29.08
2023-09-09T15:02:59.712Z,29.42
2023-09-09T15:05:33.054Z,29.05
2023-09-09T15:08:06.628Z,29.96
2023-09-09T15:10:39.411Z,30.52
2023-09-09T15:13:12.067Z,30.15
2023-09-09T15:15:45.329Z,29.51
2023-09-09T15:18:20.137Z,30.25
2023-09-09T15:20:53.137Z,29.61
2023-09-09T15:23:25.967Z,29.84
2023-09-09T15:25:59.498Z,29.99
2023-09-09T15:28:33.133Z,30.34
2023-09-09T15:31:06.703Z,30.26
2023-09-09T15:33:41.131Z,30.78
2023-09-09T15:36:14.391Z,30.50
2023-09-09T15:38:47.670Z,30.80
2023-09-09T15:41:22.352Z,30.63
2023-09-09T15:43:55.247Z,31.52
2023-09-09T15:46:28.183Z,31.04
2023-09-09T15:49:02.348Z,30.67
2023-09-09T15:51:35.327Z,31.20
2023-09-09T15:54:08.344Z,31.13
2023-09-09T15:56:41.118Z,31.59
2023-09-09T15:59:14.091Z,31.74
2023-09-09T16:01:46.883Z,31.53
2023-09-09T16:04:21.156Z,32.34
2023-09-09T16:06:53.863Z,32.34
2023-09-09T16:09:26.786Z,32.68
2023-09-09T16:11:59.860Z,33.32
2023-09-09T16:14:32.600Z,33.31
2023-09-09T16:17:05.777Z,33.17
2023-09-09T16:19:40.081Z,32.98
2023-09-09T16:22:12.836Z,33.15
2023-09-09T16:24:45.564Z,33.67
2023-09-09T16:27:18.343Z,33.83
2023-09-09T16:29:51.039Z,33.84
2023-09-09T16:32:24.155Z,33.87
2023-09-09T16:34:59.882Z,34.03
2023-09-09T16:37:35.026Z,34.11
2023-09-09T16:40:09.618Z,34.23
2023-09-09T16:42:43.277Z,34.60
2023-09-09T16:45:18.920Z,34.53
2023-09-09T16:47:52.338Z,34.77
2023-09-09T16:50:26.489Z,34.70
2023-09-09T16:52:59.653Z,34.62
2023-09-09T16:55:32.872Z,34.39
2023-09-09T16:58:05.664Z,35.22
2023-09-09T17:00:38.429Z,35.48
2023-09-09T17:03:11.441Z,35.87
2023-09-09T17:05:47.239Z,35.62
2023-09-09T17:08:21.307Z,36.00
2023-09-09T17:10:53.953Z,35.81
2023-09-09T17:13:26.927Z,35.91
2023-09-09T17:16:00.251Z,36.65
2023-09-09T17:18:33.128Z,36.33
2023-09-09T17:21:11.319Z,36.01
2023-09-09T17:23:44.463Z,35.61
2023-09-09T17:26:17.658Z,35.92
2023-09-09T17:28:50.573Z,35.43
2023-09-09T17:31:23.792Z,35.40
2023-09-09T17:33:56.935Z,35.78
2023-09-09T17:36:31.990Z,35.97
2023-09-09T17:39:08.174Z,36.03
2023-09-09T17:41:41.080Z,36.46
2023-09-09T17:44:14.122Z,36.74
2023-09-09T17:46:47.026Z,36.69
2023-09-09T17:49:23.222Z,36.80
2023-09-09T17:51:57.565Z,36.48
2023-09-09T17:54:30.336Z,37.18
2023-09-09T17:57:03.347Z,37.23
2023-09-09T17:59:35.983Z,36.76
2023-09-09T18:02:09.697Z,36.45
2023-09-09T18:04:42.832Z,36.45
2023-09-09T18:07:21.097Z,36.74
2023-09-09T18:09:56.622Z,36.88
2023-09-09T18:12:29.522Z,36.98
2023-09-09T18:15:02.426Z,37.23
2023-09-09T18:17:35.428Z,37.76
2023-09-09T18:20:09.228Z,36.96
2023-09-09T18:22:43.412Z,37.14
2023-09-09T18:25:16.560Z,37.19
2023-09-09T18:27:49.637Z,37.19
2023-09-09T18:30:24.594Z,37.05
2023-09-09T18:32:57.549Z,37.19
2023-09-09T18:35:30.283Z,37.72
2023-09-09T18:38:06.043Z,37.21
2023-09-09T18:40:39.164Z,37.56
2023-09-09T18:43:12.428Z,37.52
2023-09-09T18:45:46.252Z,37.57
2023-09-09T18:48:19.704Z,37.65
2023-09-09T18:50:52.520Z,38.10
2023-09-09T18:53:27.708Z,38.16
2023-09-09T18:56:02.203Z,38.10
2023-09-09T18:58:35.105Z,37.86
2023-09-09T19:01:09.872Z,38.63
2023-09-09T19:03:42.853Z,38.14
2023-09-09T19:06:15.742Z,38.54
2023-09-09T19:08:50.235Z,38.39
2023-09-09T19:11:23.558Z,38.64
2023-09-09T19:13:56.782Z,38.66
2023-09-09T19:16:30.030Z,38.58
2023-09-09T19:19:02.903Z,38.93
2023-09-09T19:21:35.924Z,38.45
2023-09-09T19:24:10.715Z,38.94
2023-09-09T19:26:43.622Z,38.76
2023-09-09T19:29:16.641Z,38.52
2023-09-09T19:31:50.371Z,38.82
2023-09-09T19:34:24.265Z,38.46
2023-09-09T19:36:57.099Z,38.98
2023-09-09T19:39:31.221Z,38.84
2023-09-09T19:42:04.852Z,38.97
2023-09-09T19:44:38.033Z,38.94
2023-09-09T19:47:10.777Z,39.25
2023-09-09T19:49:43.428Z,39.13
2023-09-09T19:52:16.991Z,39.29
2023-09-09T19:54:51.151Z,39.50
2023-09-09T19:57:23.862Z,39.58
2023-09-09T19:59:56.431Z,39.54
2023-09-09T20:02:29.566Z,39.40
2023-09-09T20:05:02.626Z,39.59
2023-09-09T20:07:35.950Z,39.72
2023-09-09T20:10:12.868Z,39.81
2023-09-09T20:12:46.271Z,39.69
2023-09-09T20:15:19.477Z,39.56
2023-09-09T20:17:52.590Z,39.81
2023-09-09T20:20:25.707Z,39.64
2023-09-09T20:22:58.674Z,40.09
2023-09-09T20:25:33.146Z,39.69
2023-09-09T20:28:06.935Z,40.13
2023-09-09T20:30:40.676Z,39.70
2023-09-09T20:33:15.533Z,41.37
2023-09-09T20:35:50.987Z,40.83
2023-09-09T20:38:24.143Z,40.21
2023-09-09T20:40:58.568Z,40.64
2023-09-09T20:43:31.555Z,40.66
2023-09-09T20:46:10.110Z,40.75
2023-09-09T20:48:43.592Z,40.54
2023-09-09T20:51:17.542Z,40.68
2023-09-09T20:53:50.600Z,40.45
2023-09-09T20:56:25.086Z,40.50
2023-09-09T20:58:58.100Z,40.73
2023-09-09T21:01:35.390Z,41.00
2023-09-09T21:04:08.377Z,40.68
2023-09-09T21:06:41.602Z,40.79
2023-09-09T21:09:14.441Z,40.88
2023-09-09T21:11:49.209Z,40.79
2023-09-09T21:14:23.481Z,41.00
2023-09-09T21:16:57.236Z,40.89
2023-09-09T21:19:30.388Z,41.10
2023-09-09T21:22:03.622Z,40.76
2023-09-09T21:24:36.692Z,40.93
2023-09-09T21:27:11.414Z,41.17
2023-09-09T21:29:44.426Z,41.13
2023-09-09T21:32:17.870Z,41.24
2023-09-09T21:34:52.215Z,41.18
2023-09-09T21:37:25.351Z,40.93
2023-09-09T21:39:58.275Z,41.18
2023-09-09T21:42:32.808Z,41.55
2023-09-09T21:45:06.783Z,41.43
2023-09-09T21:47:40.017Z,41.54
2023-09-09T21:50:14.100Z,41.31
2023-09-09T21:52:47.767Z,41.62
2023-09-09T21:55:20.679Z,41.53
2023-09-09T21:57:54.767Z,42.16
2023-09-09T22:00:27.643Z,41.77
2023-09-09T22:03:00.718Z,41.82
2023-09-09T22:05:33.706Z,41.88
2023-09-09T22:08:07.395Z,41.63
2023-09-09T22:10:40.332Z,41.85
2023-09-09T22:13:14.607Z,42.38
2023-09-09T22:15:48.180Z,42.29
2023-09-09T22:18:21.297Z,42.56
2023-09-09T22:20:54.637Z,42.59
2023-09-09T22:23:27.597Z,42.19
2023-09-09T22:26:00.662Z,42.23
2023-09-09T22:28:36.106Z,42.57
2023-09-09T22:31:09.134Z,42.61
2023-09-09T22:33:42.179Z,42.84
2023-09-09T22:36:14.902Z,42.46
2023-09-09T22:38:49.038Z,42.68
2023-09-09T22:41:22.129Z,43.06
2023-09-09T22:43:56.569Z,42.82
2023-09-09T22:46:29.757Z,43.06
2023-09-09T22:49:04.481Z,43.15
2023-09-09T22:51:37.803Z,42.64
2023-09-09T22:54:10.491Z,43.15
2023-09-09T22:56:43.430Z,43.12
2023-09-09T22:59:18.139Z,42.94
2023-09-09T23:01:51.038Z,43.37
2023-09-09T23:04:24.277Z,43.08
2023-09-09T23:06:57.207Z,43.10
2023-09-09T23:09:29.883Z,43.62
2023-09-09T23:12:03.042Z,43.09
2023-09-09T23:14:37.724Z,42.77
2023-09-09T23:17:11.034Z,43.05
2023-09-09T23:19:43.872Z,43.28
2023-09-09T23:22:16.755Z,43.46
2023-09-09T23:24:49.682Z,43.72
2023-09-09T23:27:23.561Z,43.69
2023-09-09T23:29:58.635Z,43.80
2023-09-09T23:32:31.964Z,43.63
2023-09-09T23:35:05.443Z,43.99
2023-09-09T23:37:38.803Z,43.88
2023-09-09T23:40:12.788Z,44.06
2023-09-09T23:42:45.968Z,43.65
2023-09-09T23:45:20.815Z,43.89
2023-09-09T23:47:54.973Z,44.17
2023-09-09T23:50:27.929Z,43.82
2023-09-09T23:53:02.996Z,43.76
2023-09-09T23:55:36.081Z,43.67
2023-09-09T23:58:09.029Z,44.47
